Time;durP1;ratioP1;P1;durP2;ratioP2;P2;SDS_P1;SDS_P2;PMS_P1;PMS_P2;Temp;Humidity;BMP_temperature;BMP_pressure;BME280_temperature;BME280_humidity;BME280_pressure;Samples;Min_cycle;Max_cycle;Signal;HPM_P1;HPM_P2
2023/08/10 00:00:08;;;;;;;7.30;2.13;;;13.90;99.90;;;;;;5086704;28;20193;-63
2023/08/10 00:02:36;;;;;;;3.95;1.77;;;13.90;99.90;;;;;;5077475;28;20239;-63
2023/08/10 00:05:05;;;;;;;8.48;1.83;;;13.80;99.90;;;;;;5089875;28;20205;-63
2023/08/10 00:07:34;;;;;;;12.13;1.85;;;13.80;99.90;;;;;;5082307;28;20578;-63
2023/08/10 00:10:03;;;;;;;10.57;1.85;;;13.70;99.90;;;;;;5081879;28;20225;-64
2023/08/10 00:12:31;;;;;;;5.03;1.80;;;13.70;99.90;;;;;;5090514;28;20201;-63
2023/08/10 00:15:00;;;;;;;7.22;2.38;;;13.70;99.90;;;;;;5061132;28;20204;-64
2023/08/10 00:17:28;;;;;;;6.65;2.05;;;13.70;99.90;;;;;;5086116;28;20253;-63
2023/08/10 00:19:56;;;;;;;5.40;2.00;;;13.60;99.90;;;;;;5085566;28;20207;-63
2023/08/10 00:22:24;;;;;;;4.22;1.60;;;13.50;99.90;;;;;;5078456;28;20280;-64
2023/08/10 00:24:52;;;;;;;8.25;2.40;;;13.50;99.90;;;;;;5090299;28;20580;-64
2023/08/10 00:27:22;;;;;;;11.88;2.08;;;13.50;99.90;;;;;;5080345;28;20281;-64
2023/08/10 00:29:50;;;;;;;12.48;2.33;;;13.40;99.90;;;;;;5083230;28;20274;-64
2023/08/10 00:32:19;;;;;;;4.13;1.63;;;13.40;99.90;;;;;;5088256;28;20205;-64
2023/08/10 00:34:47;;;;;;;4.78;1.90;;;13.40;99.90;;;;;;5076641;28;20259;-63
2023/08/10 00:37:15;;;;;;;10.02;1.77;;;13.40;99.90;;;;;;5087613;28;20225;-63
2023/08/10 00:39:44;;;;;;;6.22;1.50;;;13.30;99.90;;;;;;5083336;28;20200;-63
2023/08/10 00:42:12;;;;;;;6.15;1.58;;;13.30;99.90;;;;;;5079572;28;20232;-64
2023/08/10 00:44:42;;;;;;;4.28;1.70;;;13.30;99.90;;;;;;5089874;28;20250;-64
2023/08/10 00:47:10;;;;;;;5.95;1.85;;;13.30;99.90;;;;;;5077667;28;20307;-63
2023/08/10 00:49:37;;;;;;;8.63;1.65;;;13.30;99.90;;;;;;5084626;28;20217;-63
2023/08/10 00:52:05;;;;;;;8.00;1.52;;;13.30;99.90;;;;;;5086374;28;20230;-64
2023/08/10 00:54:34;;;;;;;6.03;1.65;;;13.30;99.90;;;;;;5076776;28;20201;-63
2023/08/10 00:57:02;;;;;;;6.60;1.70;;;13.20;99.90;;;;;;5089175;28;20691;-63
2023/08/10 00:59:30;;;;;;;4.22;1.40;;;13.20;99.90;;;;;;5068815;28;20228;-64
2023/08/10 01:01:59;;;;;;;11.50;1.85;;;13.30;99.90;;;;;;5081388;28;20240;-64
2023/08/10 01:04:27;;;;;;;9.25;1.70;;;13.20;99.90;;;;;;5089086;28;20243;-64
2023/08/10 01:06:59;;;;;;;8.32;1.65;;;13.20;99.90;;;;;;5076310;28;20252;-64
2023/08/10 01:09:31;;;;;;;5.95;2.35;;;13.20;99.90;;;;;;5084415;28;20729;-64
2023/08/10 01:12:04;;;;;;;6.47;1.48;;;13.20;99.90;;;;;;5087421;28;20256;-64
2023/08/10 01:14:36;;;;;;;2.35;1.20;;;13.20;99.90;;;;;;5076402;28;20781;-63
2023/08/10 01:17:05;;;;;;;6.78;1.95;;;13.20;99.90;;;;;;5088178;28;20626;-64
2023/08/10 01:19:36;;;;;;;11.73;1.95;;;13.20;99.90;;;;;;5081278;28;20232;-64
2023/08/10 01:22:09;;;;;;;10.30;1.98;;;13.20;99.90;;;;;;5079605;28;20193;-64
2023/08/10 01:24:42;;;;;;;3.30;1.67;;;13.20;99.90;;;;;;5089195;28;20257;-63
2023/08/10 01:27:12;;;;;;;5.72;1.88;;;13.20;99.90;;;;;;5077929;28;20640;-64
2023/08/10 01:29:40;;;;;;;3.75;1.45;;;13.20;99.90;;;;;;5083425;28;20197;-64
2023/08/10 01:32:13;;;;;;;2.72;1.33;;;13.20;99.90;;;;;;5085888;28;20224;-64
2023/08/10 01:34:41;;;;;;;3.17;1.55;;;13.20;99.90;;;;;;5075647;28;20216;-64
2023/08/10 01:37:09;;;;;;;7.80;1.98;;;13.20;99.90;;;;;;5087263;28;20240;-64
2023/08/10 01:39:37;;;;;;;8.07;1.60;;;13.20;99.90;;;;;;5081513;28;20200;-64
2023/08/10 01:42:05;;;;;;;8.10;2.22;;;13.20;99.90;;;;;;5079889;28;20271;-64
2023/08/10 01:44:34;;;;;;;7.57;1.67;;;13.20;99.90;;;;;;5088674;28;20743;-62
2023/08/10 01:47:04;;;;;;;4.65;1.65;;;13.20;99.90;;;;;;5075137;28;20220;-64
2023/08/10 01:49:32;;;;;;;4.45;2.10;;;13.30;99.90;;;;;;5083450;28;20244;-64
2023/08/10 01:52:00;;;;;;;7.60;1.80;;;13.30;99.90;;;;;;5084660;28;20323;-64
2023/08/10 01:54:28;;;;;;;3.80;1.73;;;13.30;99.90;;;;;;5075963;28;20288;-64
2023/08/10 01:56:56;;;;;;;7.30;1.88;;;13.30;99.90;;;;;;5088383;28;20271;-63
2023/08/10 01:59:24;;;;;;;5.22;1.80;;;13.30;99.90;;;;;;5071260;28;20205;-63
2023/08/10 02:01:53;;;;;;;8.43;1.98;;;13.30;99.90;;;;;;5082997;28;20201;-64
2023/08/10 02:04:21;;;;;;;9.45;2.03;;;13.30;99.90;;;;;;5076378;28;20288;-64
2023/08/10 02:06:49;;;;;;;9.32;1.70;;;13.30;99.90;;;;;;5088386;28;20221;-64
2023/08/10 02:09:17;;;;;;;3.03;1.90;;;13.30;99.90;;;;;;5077580;28;20668;-65
2023/08/10 02:11:45;;;;;;;4.38;1.52;;;13.30;99.90;;;;;;5081758;28;20248;-64
2023/08/10 02:14:13;;;;;;;3.17;1.85;;;13.30;99.90;;;;;;5085569;28;20266;-66
2023/08/10 02:16:40;;;;;;;2.80;1.55;;;13.30;99.90;;;;;;5074887;28;20287;-63
2023/08/10 02:19:10;;;;;;;4.65;1.83;;;13.30;99.90;;;;;;5086946;28;20280;-63
2023/08/10 02:21:38;;;;;;;4.50;1.90;;;13.20;99.90;;;;;;5080921;28;20208;-66
2023/08/10 02:24:06;;;;;;;2.55;1.80;;;13.30;99.90;;;;;;5078729;28;20209;-62
2023/08/10 02:26:34;;;;;;;7.32;1.73;;;13.30;99.90;;;;;;5087628;28;20216;-66
2023/08/10 02:29:02;;;;;;;9.35;1.95;;;13.20;99.90;;;;;;5075607;28;20228;-63
2023/08/10 02:31:31;;;;;;;11.00;2.00;;;13.20;99.90;;;;;;5083801;28;20221;-64
2023/08/10 02:33:59;;;;;;;2.90;2.10;;;13.20;99.90;;;;;;5083230;28;20196;-65
2023/08/10 02:36:29;;;;;;;6.63;2.40;;;13.20;99.90;;;;;;5075279;28;20201;-62
2023/08/10 02:38:56;;;;;;;3.53;1.65;;;13.20;99.90;;;;;;5088000;28;20687;-62
2023/08/10 02:41:24;;;;;;;8.40;1.77;;;13.20;99.90;;;;;;5078590;28;20254;-65
2023/08/10 02:43:52;;;;;;;5.32;1.88;;;13.20;99.90;;;;;;5080222;28;20220;-63
2023/08/10 02:46:21;;;;;;;5.05;1.85;;;13.20;99.90;;;;;;5086375;28;20228;-64
2023/08/10 02:48:49;;;;;;;8.65;2.22;;;13.10;99.90;;;;;;5074852;28;20262;-65
2023/08/10 02:51:17;;;;;;;4.18;1.85;;;13.10;99.90;;;;;;5085323;28;20224;-66
2023/08/10 02:53:46;;;;;;;4.93;2.30;;;13.10;99.90;;;;;;5081392;28;20270;-65
2023/08/10 02:56:14;;;;;;;6.85;1.95;;;13.10;99.90;;;;;;5076896;28;20240;-64
2023/08/10 02:58:42;;;;;;;6.20;2.03;;;13.10;99.90;;;;;;5076791;28;20644;-62
2023/08/10 03:01:10;;;;;;;5.55;2.17;;;13.20;99.90;;;;;;5086298;28;20224;-65
2023/08/10 03:03:38;;;;;;;2.38;1.92;;;13.10;99.90;;;;;;5080350;28;20204;-63
2023/08/10 03:06:06;;;;;;;3.80;1.98;;;13.20;99.90;;;;;;5078113;28;20201;-63
2023/08/10 03:08:34;;;;;;;4.60;1.88;;;13.20;99.90;;;;;;5087873;28;20224;-62
2023/08/10 03:11:04;;;;;;;7.43;2.10;;;13.20;99.90;;;;;;5079395;28;20197;-63
2023/08/10 03:13:32;;;;;;;13.93;2.17;;;13.20;99.90;;;;;;5087081;28;20202;-61
2023/08/10 03:15:59;;;;;;;7.75;1.52;;;13.10;99.90;;;;;;5087068;28;20204;-63
2023/08/10 03:18:27;;;;;;;6.18;1.90;;;13.10;99.90;;;;;;5078994;28;20225;-63
2023/08/10 03:20:55;;;;;;;1.73;1.63;;;13.10;99.90;;;;;;5091857;28;20262;-62
2023/08/10 03:23:23;;;;;;;11.35;2.15;;;13.10;99.90;;;;;;5081890;28;20944;-63
2023/08/10 03:25:51;;;;;;;9.98;1.83;;;13.10;99.90;;;;;;5084104;28;20256;-64
2023/08/10 03:28:22;;;;;;;8.48;2.13;;;13.00;99.90;;;;;;5089557;28;20223;-64
2023/08/10 03:30:50;;;;;;;3.25;1.70;;;13.10;99.90;;;;;;5078131;28;20272;-65
2023/08/10 03:33:19;;;;;;;1.92;1.67;;;13.10;99.90;;;;;;5088059;28;20227;-63
2023/08/10 03:35:47;;;;;;;7.57;2.03;;;13.10;99.90;;;;;;5084684;28;20243;-64
2023/08/10 03:38:14;;;;;;;8.68;1.77;;;13.00;99.90;;;;;;5110128;22;20658;-60
2023/08/10 03:40:42;;;;;;;3.78;1.42;;;13.00;99.90;;;;;;5112006;28;20207;-61
2023/08/10 03:43:10;;;;;;;9.15;1.90;;;13.00;99.90;;;;;;5100228;28;20265;-60
2023/08/10 03:45:39;;;;;;;6.57;1.90;;;13.00;99.90;;;;;;5105630;28;20284;-61
2023/08/10 03:48:07;;;;;;;3.90;1.83;;;12.90;99.90;;;;;;5094391;28;20216;-62
2023/08/10 03:50:37;;;;;;;5.72;1.70;;;12.90;99.90;;;;;;5094774;28;20209;-60
2023/08/10 03:53:05;;;;;;;5.22;1.80;;;12.90;99.90;;;;;;5094492;28;20259;-60
2023/08/10 03:55:33;;;;;;;4.15;1.60;;;12.90;99.90;;;;;;5094497;28;20272;-61
2023/08/10 03:58:01;;;;;;;5.63;1.85;;;12.90;99.90;;;;;;5086239;28;20283;-61
2023/08/10 04:00:29;;;;;;;3.95;1.83;;;12.90;99.90;;;;;;5090755;28;20205;-61
2023/08/10 04:02:58;;;;;;;5.45;1.90;;;12.90;99.90;;;;;;5094163;28;20683;-62
2023/08/10 04:05:27;;;;;;;3.67;1.60;;;12.90;99.90;;;;;;5094606;28;20253;-62
2023/08/10 04:07:55;;;;;;;8.77;1.98;;;12.90;99.90;;;;;;5094258;28;20767;-61
2023/08/10 04:10:22;;;;;;;7.80;2.13;;;12.90;99.90;;;;;;5094513;28;20208;-61
2023/08/10 04:12:50;;;;;;;2.97;1.73;;;12.90;99.90;;;;;;5093917;28;20262;-61
2023/08/10 04:15:18;;;;;;;3.38;1.50;;;12.90;99.90;;;;;;5093713;28;20251;-61
2023/08/10 04:17:46;;;;;;;7.25;2.00;;;12.90;99.90;;;;;;5094221;28;20293;-62
2023/08/10 04:20:16;;;;;;;2.97;2.00;;;13.00;99.90;;;;;;5093503;28;20727;-61
2023/08/10 04:22:43;;;;;;;6.10;1.80;;;13.00;99.90;;;;;;5093849;28;21011;-61
2023/08/10 04:25:11;;;;;;;7.85;1.45;;;13.00;99.90;;;;;;5094123;28;20200;-62
2023/08/10 04:27:40;;;;;;;7.35;2.03;;;13.00;99.90;;;;;;5093814;28;20313;-61
2023/08/10 04:30:09;;;;;;;4.63;1.80;;;13.00;99.90;;;;;;5094009;28;20240;-62
2023/08/10 04:32:37;;;;;;;7.45;2.30;;;13.00;99.90;;;;;;5093819;28;20220;-62
2023/08/10 04:35:06;;;;;;;10.63;1.83;;;13.00;99.90;;;;;;5093812;28;20222;-62
2023/08/10 04:37:35;;;;;;;5.25;2.10;;;13.10;99.90;;;;;;5091590;28;20605;-61
2023/08/10 04:40:09;;;;;;;1.85;1.60;;;13.10;99.90;;;;;;5092038;28;20266;-62
2023/08/10 04:42:39;;;;;;;5.88;1.80;;;13.10;99.90;;;;;;5093306;28;20282;-62
2023/08/10 04:45:10;;;;;;;4.82;2.22;;;13.10;99.90;;;;;;5093646;28;20204;-62
2023/08/10 04:47:38;;;;;;;3.95;1.77;;;13.10;99.90;;;;;;5093572;28;20224;-61
2023/08/10 04:50:07;;;;;;;10.85;2.20;;;13.20;99.90;;;;;;5091122;28;20201;-61
2023/08/10 04:52:36;;;;;;;9.80;2.03;;;13.20;99.90;;;;;;5082186;28;20244;-62
2023/08/10 04:55:05;;;;;;;2.50;1.85;;;13.20;99.90;;;;;;5083568;28;20205;-61
2023/08/10 04:57:33;;;;;;;6.10;1.95;;;13.20;99.90;;;;;;5081669;28;20232;-62
2023/08/10 05:00:03;;;;;;;2.10;1.90;;;13.30;99.90;;;;;;5071960;28;20229;-61
2023/08/10 05:02:35;;;;;;;6.95;1.52;;;13.40;99.90;;;;;;5076945;28;20193;-61
2023/08/10 05:05:04;;;;;;;4.47;1.90;;;13.40;99.90;;;;;;5077882;28;20210;-62
2023/08/10 05:07:32;;;;;;;8.57;2.63;;;13.40;99.90;;;;;;5072172;28;20229;-62
2023/08/10 05:10:04;;;;;;;6.70;2.17;;;13.50;99.90;;;;;;5072335;28;20266;-61
2023/08/10 05:12:31;;;;;;;2.92;1.70;;;13.50;99.90;;;;;;5078301;28;20270;-63
2023/08/10 05:14:59;;;;;;;7.25;2.28;;;13.60;99.90;;;;;;5060336;28;20212;-61
2023/08/10 05:17:27;;;;;;;7.95;2.13;;;13.60;99.90;;;;;;5093023;28;20277;-60
2023/08/10 05:19:55;;;;;;;10.82;2.40;;;13.70;99.90;;;;;;5092712;28;20201;-62
2023/08/10 05:22:24;;;;;;;9.45;2.30;;;13.70;99.90;;;;;;5093095;28;20243;-62
2023/08/10 05:24:51;;;;;;;5.32;2.15;;;13.80;99.90;;;;;;5092559;28;20277;-61
2023/08/10 05:27:21;;;;;;;4.63;2.38;;;13.80;99.90;;;;;;5092659;28;20224;-62
2023/08/10 05:29:49;;;;;;;4.43;2.42;;;13.90;99.90;;;;;;5092589;28;20250;-66
2023/08/10 05:32:17;;;;;;;6.55;2.20;;;13.90;99.90;;;;;;5092456;28;20292;-66
2023/08/10 05:34:46;;;;;;;3.15;2.80;;;14.00;99.90;;;;;;5092428;28;20289;-65
2023/08/10 05:37:14;;;;;;;6.35;2.92;;;14.00;99.90;;;;;;5092647;28;20319;-65
2023/08/10 05:39:42;;;;;;;7.80;3.20;;;14.10;99.90;;;;;;5091918;28;20212;-65
2023/08/10 05:42:10;;;;;;;6.55;2.95;;;14.10;99.90;;;;;;5092638;28;20207;-65
2023/08/10 05:44:39;;;;;;;8.68;3.03;;;14.20;99.90;;;;;;5092135;28;20201;-66
2023/08/10 05:47:07;;;;;;;13.63;3.42;;;14.20;99.90;;;;;;5092148;28;20526;-65
2023/08/10 05:49:35;;;;;;;4.63;3.22;;;14.30;99.90;;;;;;5092362;28;20246;-66
2023/08/10 05:52:03;;;;;;;9.55;3.00;;;14.30;99.90;;;;;;5092523;28;20200;-65
2023/08/10 05:54:31;;;;;;;4.45;3.45;;;14.30;99.90;;;;;;5092088;28;20243;-65
2023/08/10 05:56:59;;;;;;;4.82;3.55;;;14.30;99.90;;;;;;5059443;28;20225;-66
2023/08/10 05:59:27;;;;;;;7.55;3.63;;;14.40;99.90;;;;;;5079347;28;20215;-65
2023/08/10 06:01:57;;;;;;;8.60;3.00;;;14.40;99.90;;;;;;5092367;28;20655;-65
2023/08/10 06:04:25;;;;;;;8.80;3.60;;;14.50;99.90;;;;;;5092178;28;20205;-65
2023/08/10 06:06:53;;;;;;;7.60;3.33;;;14.50;99.90;;;;;;5091723;28;20711;-65
2023/08/10 06:09:21;;;;;;;6.53;3.35;;;14.60;99.90;;;;;;5091970;28;20243;-65
2023/08/10 06:11:49;;;;;;;5.63;3.38;;;14.70;99.90;;;;;;5092077;28;20275;-66
2023/08/10 06:14:17;;;;;;;5.15;3.22;;;14.70;99.90;;;;;;5091819;28;20225;-65
2023/08/10 06:16:45;;;;;;;4.10;3.70;;;14.80;99.90;;;;;;5091606;28;20208;-65
2023/08/10 06:19:14;;;;;;;5.20;3.22;;;14.80;99.90;;;;;;5091468;28;20671;-66
2023/08/10 06:21:42;;;;;;;9.75;3.85;;;14.90;99.90;;;;;;5091978;28;20209;-66
2023/08/10 06:24:10;;;;;;;6.35;3.92;;;14.90;99.90;;;;;;5091749;28;20230;-65
2023/08/10 06:26:38;;;;;;;5.53;3.38;;;15.00;99.90;;;;;;5091175;28;20228;-66
2023/08/10 06:29:06;;;;;;;5.88;3.55;;;15.00;99.90;;;;;;5091989;28;20255;-65
2023/08/10 06:31:35;;;;;;;9.32;3.75;;;15.00;99.90;;;;;;5091930;28;20236;-66
2023/08/10 06:34:03;;;;;;;11.52;4.43;;;15.10;99.90;;;;;;5091645;28;20212;-65
2023/08/10 06:36:33;;;;;;;5.38;3.67;;;15.20;99.90;;;;;;5091530;28;20636;-65
2023/08/10 06:39:01;;;;;;;5.28;3.80;;;15.20;99.90;;;;;;5059156;28;20223;-65
2023/08/10 06:41:29;;;;;;;10.57;4.40;;;15.30;99.90;;;;;;5091911;28;20669;-66
2023/08/10 06:43:57;;;;;;;9.80;4.07;;;15.40;99.90;;;;;;5091084;28;20273;-66
2023/08/10 06:46:25;;;;;;;7.28;3.97;;;15.50;99.90;;;;;;5091210;28;20250;-65
2023/08/10 06:48:55;;;;;;;7.80;3.58;;;15.70;99.90;;;;;;5091349;28;20226;-65
2023/08/10 06:51:23;;;;;;;7.35;3.80;;;15.80;99.90;;;;;;5091569;28;20247;-65
2023/08/10 06:53:52;;;;;;;11.70;3.92;;;16.00;99.90;;;;;;5091553;28;20221;-66
2023/08/10 06:56:20;;;;;;;15.45;3.90;;;16.10;99.90;;;;;;5091254;28;20200;-65
2023/08/10 06:58:48;;;;;;;4.55;3.92;;;16.30;99.90;;;;;;5078901;28;20274;-65
2023/08/10 07:01:19;;;;;;;8.15;3.88;;;16.40;99.90;;;;;;5091715;28;20644;-65
2023/08/10 07:03:47;;;;;;;10.07;3.70;;;16.40;99.90;;;;;;5091215;28;20232;-63
2023/08/10 07:06:16;;;;;;;4.80;3.78;;;16.50;99.90;;;;;;5091177;28;20204;-63
2023/08/10 07:08:44;;;;;;;6.90;3.50;;;16.60;99.90;;;;;;5090986;28;20224;-64
2023/08/10 07:11:13;;;;;;;9.30;3.83;;;16.60;99.90;;;;;;5091488;28;20254;-64
2023/08/10 07:13:42;;;;;;;5.53;3.45;;;16.70;99.90;;;;;;5091166;28;20227;-63
2023/08/10 07:16:10;;;;;;;6.20;3.75;;;16.70;99.90;;;;;;5090886;28;20671;-64
2023/08/10 07:18:38;;;;;;;5.97;3.08;;;16.80;99.90;;;;;;5090752;28;20220;-64
2023/08/10 07:21:06;;;;;;;8.55;3.35;;;16.90;99.90;;;;;;5091415;28;20220;-64
2023/08/10 07:23:34;;;;;;;5.53;3.28;;;16.90;99.90;;;;;;5091077;28;20667;-64
2023/08/10 07:26:02;;;;;;;6.68;2.95;;;17.00;99.90;;;;;;5091126;28;20257;-64
2023/08/10 07:28:31;;;;;;;7.32;3.70;;;17.10;99.90;;;;;;5090904;28;20252;-64
2023/08/10 07:31:00;;;;;;;7.40;3.63;;;17.20;99.90;;;;;;5091067;28;20239;-64
2023/08/10 07:33:29;;;;;;;8.52;3.83;;;17.20;99.90;;;;;;5091020;28;20204;-64
2023/08/10 07:35:59;;;;;;;3.97;3.55;;;17.20;99.90;;;;;;5090886;28;20247;-64
2023/08/10 07:38:26;;;;;;;7.80;3.78;;;17.30;99.90;;;;;;5090755;28;20236;-64
2023/08/10 07:40:54;;;;;;;10.55;3.55;;;17.30;99.90;;;;;;5091008;28;20254;-64
2023/08/10 07:43:22;;;;;;;4.43;3.65;;;17.40;99.90;;;;;;5090815;28;20736;-64
2023/08/10 07:45:52;;;;;;;7.43;4.40;;;17.50;99.90;;;;;;5090598;28;20204;-64
2023/08/10 07:48:20;;;;;;;3.85;3.05;;;17.50;99.90;;;;;;5090893;28;20224;-64
2023/08/10 07:50:48;;;;;;;3.83;3.20;;;17.60;99.90;;;;;;5090960;28;20239;-64
2023/08/10 07:53:15;;;;;;;4.15;3.17;;;17.70;99.90;;;;;;5090766;28;20200;-64
2023/08/10 07:55:43;;;;;;;6.53;3.40;;;17.80;99.90;;;;;;5090727;28;20278;-64
2023/08/10 07:58:12;;;;;;;4.28;3.05;;;17.80;99.90;;;;;;5084346;28;20224;-64
2023/08/10 08:00:40;;;;;;;13.68;3.40;;;18.00;99.90;;;;;;5092173;28;20291;-64
2023/08/10 08:03:10;;;;;;;6.43;2.88;;;18.10;99.90;;;;;;5094356;28;20257;-64
2023/08/10 08:05:38;;;;;;;7.10;3.03;;;18.20;99.90;;;;;;5093874;28;20196;-64
2023/08/10 08:08:06;;;;;;;5.15;3.10;;;18.30;99.90;;;;;;5094084;28;20296;-64
2023/08/10 08:10:34;;;;;;;4.30;3.33;;;18.40;99.90;;;;;;5094040;28;20720;-64
2023/08/10 08:13:06;;;;;;;7.85;3.55;;;18.50;99.90;;;;;;5094251;28;20207;-64
2023/08/10 08:15:34;;;;;;;5.28;3.08;;;18.50;99.90;;;;;;5093796;28;20601;-64
2023/08/10 08:18:44;;;;;;;4.85;2.78;;;18.60;99.90;;;;;;5093852;28;20762;-64
2023/08/10 08:21:12;;;;;;;7.13;2.55;;;18.60;99.90;;;;;;5042535;28;20200;-64
2023/08/10 08:23:40;;;;;;;7.25;3.00;;;18.80;99.90;;;;;;5094096;28;20273;-64
2023/08/10 08:26:08;;;;;;;6.75;3.35;;;18.80;99.90;;;;;;5093225;28;20345;-64
2023/08/10 08:28:36;;;;;;;9.10;2.90;;;18.80;99.90;;;;;;5093777;28;20274;-64
2023/08/10 08:31:04;;;;;;;5.85;2.55;;;18.80;99.90;;;;;;5093792;28;20261;-64
2023/08/10 08:33:32;;;;;;;3.22;2.67;;;18.90;99.90;;;;;;5093560;28;20204;-64
2023/08/10 08:36:01;;;;;;;4.72;2.97;;;19.10;99.90;;;;;;5093628;28;20226;-64
2023/08/10 08:38:30;;;;;;;5.10;2.30;;;19.20;99.90;;;;;;5093496;28;20715;-64
2023/08/10 08:40:57;;;;;;;5.30;2.83;;;19.40;99.90;;;;;;5093673;28;20676;-64
2023/08/10 08:43:25;;;;;;;8.48;3.20;;;19.50;99.90;;;;;;5093662;28;20635;-64
2023/08/10 08:45:54;;;;;;;7.35;2.90;;;19.60;99.90;;;;;;5093291;28;20246;-64
2023/08/10 08:48:21;;;;;;;9.45;2.83;;;19.60;99.90;;;;;;5093389;28;20236;-64
2023/08/10 08:50:50;;;;;;;3.72;2.90;;;19.70;99.90;;;;;;5092977;28;20687;-64
2023/08/10 08:53:19;;;;;;;5.80;2.70;;;19.70;99.90;;;;;;5093063;28;20247;-64
2023/08/10 08:55:47;;;;;;;8.23;3.33;;;19.90;99.90;;;;;;5092824;28;20303;-64
2023/08/10 08:58:16;;;;;;;11.90;2.80;;;19.90;99.90;;;;;;5082756;28;20259;-64
2023/08/10 09:00:47;;;;;;;9.07;3.17;;;20.00;99.90;;;;;;5090904;28;20212;-64
2023/08/10 09:03:15;;;;;;;6.95;3.15;;;20.10;99.90;;;;;;5092843;28;20197;-64
2023/08/10 09:05:45;;;;;;;5.13;2.70;;;20.20;99.90;;;;;;5092701;28;20196;-64
2023/08/10 09:08:14;;;;;;;6.93;2.50;;;20.30;99.90;;;;;;5092242;28;20258;-64
2023/08/10 09:10:43;;;;;;;7.15;2.95;;;20.40;99.90;;;;;;5092782;28;20196;-64
2023/08/10 09:13:12;;;;;;;4.10;2.47;;;20.60;99.90;;;;;;5092569;28;20231;-64
2023/08/10 09:15:40;;;;;;;5.05;2.63;;;20.70;99.90;;;;;;5092395;28;20220;-64
2023/08/10 09:18:07;;;;;;;4.82;2.35;;;20.80;99.90;;;;;;5092626;28;20220;-64
2023/08/10 09:20:35;;;;;;;5.60;3.00;;;20.80;99.90;;;;;;5092731;28;20303;-63
2023/08/10 09:23:04;;;;;;;9.55;2.55;;;20.90;99.90;;;;;;5092646;28;20208;-64
2023/08/10 09:25:37;;;;;;;3.53;2.53;;;21.00;99.90;;;;;;5092339;28;20203;-63
2023/08/10 09:28:12;;;;;;;6.07;2.92;;;21.20;99.90;;;;;;5092491;28;20316;-63
2023/08/10 09:30:41;;;;;;;4.95;2.78;;;21.30;99.90;;;;;;5093142;28;20258;-64
2023/08/10 09:33:09;;;;;;;4.65;2.42;;;21.40;99.90;;;;;;5092477;28;20196;-64
2023/08/10 09:35:38;;;;;;;8.40;2.50;;;21.60;99.90;;;;;;5091914;28;20690;-64
2023/08/10 09:38:06;;;;;;;5.65;2.30;;;21.80;99.90;;;;;;5107778;22;20236;-63
2023/08/10 09:40:34;;;;;;;6.85;2.78;;;22.10;99.90;;;;;;5109444;28;20203;-63
2023/08/10 09:43:08;;;;;;;3.92;1.92;;;22.30;99.90;;;;;;5096555;28;20255;-63
2023/08/10 09:45:39;;;;;;;4.35;2.22;;;22.50;99.90;;;;;;5103519;28;20210;-63
2023/08/10 09:48:11;;;;;;;3.42;2.33;;;22.70;99.90;;;;;;5105680;28;20733;-64
2023/08/10 09:50:39;;;;;;;7.78;2.40;;;22.90;99.90;;;;;;5095864;27;20204;-63
2023/08/10 09:53:07;;;;;;;5.50;2.55;;;23.10;99.90;;;;;;5108106;28;20204;-63
2023/08/10 09:55:35;;;;;;;4.95;2.55;;;23.40;99.90;;;;;;5100830;28;20251;-63
2023/08/10 09:58:03;;;;;;;7.57;2.40;;;23.50;99.90;;;;;;5099660;28;20710;-63
2023/08/10 10:00:31;;;;;;;5.20;2.47;;;23.60;99.90;;;;;;5092359;28;20663;-63
2023/08/10 10:03:00;;;;;;;2.47;2.10;;;23.80;99.90;;;;;;5079119;28;20207;-63
2023/08/10 10:05:28;;;;;;;3.50;1.60;;;24.00;99.90;;;;;;5104367;28;20212;-64
2023/08/10 10:08:03;;;;;;;2.58;2.00;;;24.10;99.90;;;;;;5104879;28;20219;-64
2023/08/10 10:10:31;;;;;;;6.43;2.60;;;24.30;99.90;;;;;;5095894;28;20261;-64
2023/08/10 10:12:59;;;;;;;4.13;2.05;;;24.40;99.90;;;;;;5079476;28;20241;-64
2023/08/10 10:15:27;;;;;;;4.13;2.22;;;24.60;99.90;;;;;;5104403;28;20224;-64
2023/08/10 10:17:55;;;;;;;9.45;1.83;;;24.70;99.90;;;;;;5103352;28;20258;-64
2023/08/10 10:20:24;;;;;;;5.75;2.20;;;24.80;99.90;;;;;;5096303;28;20210;-64
2023/08/10 10:22:52;;;;;;;5.13;2.15;;;25.00;99.90;;;;;;5108743;28;20261;-63
2023/08/10 10:25:21;;;;;;;3.55;1.92;;;25.20;99.90;;;;;;5098383;28;20195;-63
2023/08/10 10:27:50;;;;;;;7.43;1.95;;;25.30;99.90;;;;;;5101444;28;20280;-64
2023/08/10 10:30:21;;;;;;;9.00;2.20;;;25.50;99.90;;;;;;5106585;28;20226;-64
2023/08/10 10:32:50;;;;;;;4.22;1.85;;;25.70;99.90;;;;;;5095466;28;20261;-64
2023/08/10 10:35:21;;;;;;;2.22;1.60;;;25.90;99.90;;;;;;5105460;28;20224;-64
2023/08/10 10:37:56;;;;;;;3.85;2.00;;;26.10;99.90;;;;;;5102349;28;20831;-64
2023/08/10 10:40:24;;;;;;;2.33;1.63;;;26.30;99.90;;;;;;5095972;28;20620;-64
2023/08/10 10:43:14;;;;;;;2.10;1.90;;;26.50;99.90;;;;;;5108289;28;20204;-64
2023/08/10 10:45:42;;;;;;;1.80;1.55;;;26.60;99.90;;;;;;5101161;28;20567;-64
2023/08/10 10:48:11;;;;;;;4.82;1.85;;;26.80;99.90;;;;;;5097966;28;20224;-64
2023/08/10 10:50:39;;;;;;;6.97;1.63;;;27.00;99.90;;;;;;5108405;28;20226;-64
2023/08/10 10:53:11;;;;;;;5.00;1.85;;;27.10;99.90;;;;;;5096249;28;20296;-64
2023/08/10 10:55:42;;;;;;;2.63;1.75;;;27.30;99.90;;;;;;5102578;28;20219;-64
2023/08/10 10:58:11;;;;;;;4.93;1.33;;;27.40;99.90;;;;;;5095518;28;20949;-64
2023/08/10 11:00:39;;;;;;;3.67;1.48;;;27.70;99.90;;;;;;5108412;28;20252;-64
2023/08/10 11:03:08;;;;;;;4.45;1.77;;;27.80;99.90;;;;;;5096315;28;20203;-63
2023/08/10 11:05:36;;;;;;;5.18;2.08;;;28.00;99.90;;;;;;5102551;28;20199;-64
2023/08/10 11:08:06;;;;;;;1.60;1.50;;;28.00;99.90;;;;;;5104092;28;20919;-64
2023/08/10 11:10:36;;;;;;;3.92;1.80;;;28.00;99.90;;;;;;5095158;28;20203;-64
2023/08/10 11:13:04;;;;;;;2.00;1.73;;;28.00;99.90;;;;;;5107537;28;20200;-64
2023/08/10 11:15:32;;;;;;;6.00;2.13;;;28.20;99.90;;;;;;5099389;28;20747;-64
2023/08/10 11:18:03;;;;;;;2.85;1.67;;;28.40;99.90;;;;;;5099218;28;20224;-64
2023/08/10 11:20:31;;;;;;;2.47;1.80;;;28.60;99.90;;;;;;5108160;28;20192;-64
2023/08/10 11:22:59;;;;;;;3.20;1.45;;;28.90;99.90;;;;;;5078862;28;20572;-64
2023/08/10 11:25:31;;;;;;;7.05;1.73;;;29.20;99.90;;;;;;5103729;28;20345;-64
2023/08/10 11:28:02;;;;;;;2.50;1.35;;;29.50;99.90;;;;;;5103651;28;20223;-64
2023/08/10 11:30:30;;;;;;;2.75;1.52;;;29.60;99.90;;;;;;5096552;28;20231;-64
2023/08/10 11:32:58;;;;;;;7.50;1.67;;;29.50;99.90;;;;;;5098556;28;20573;-64
2023/08/10 11:35:26;;;;;;;6.18;1.23;;;29.50;99.90;;;;;;5107759;28;20211;-65
2023/08/10 11:37:54;;;;;;;3.75;1.52;;;29.70;99.90;;;;;;5106337;28;20705;-64
2023/08/10 11:40:22;;;;;;;3.90;1.35;;;29.80;99.90;;;;;;5099714;28;20232;-64
2023/08/10 11:42:52;;;;;;;2.05;1.58;;;29.80;99.90;;;;;;5111774;28;20200;-64
2023/08/10 11:45:23;;;;;;;2.05;1.63;;;29.80;99.90;;;;;;5101120;28;20200;-64
2023/08/10 11:47:54;;;;;;;2.17;1.55;;;29.80;99.90;;;;;;5104410;28;20252;-64
2023/08/10 11:50:31;;;;;;;6.63;1.80;;;29.80;99.90;;;;;;5111740;28;20203;-64
2023/08/10 11:53:08;;;;;;;5.65;2.00;;;29.90;99.90;;;;;;5082068;28;20206;-64
2023/08/10 11:55:37;;;;;;;1.98;1.75;;;30.00;99.90;;;;;;5105480;28;20663;-64
2023/08/10 11:58:05;;;;;;;2.70;1.52;;;30.20;99.40;;;;;;5098754;28;20273;-64
2023/08/10 12:00:38;;;;;;;1.50;1.40;;;30.30;97.50;;;;;;5111431;28;20206;-64
2023/08/10 12:03:07;;;;;;;1.63;1.52;;;30.40;97.30;;;;;;5099333;28;20609;-64
2023/08/10 12:05:39;;;;;;;2.08;1.52;;;30.40;96.40;;;;;;5105355;27;20235;-64
2023/08/10 12:08:08;;;;;;;2.40;1.58;;;30.40;93.70;;;;;;5094261;28;20292;-64
2023/08/10 12:10:36;;;;;;;8.80;1.83;;;30.70;97.60;;;;;;5111346;28;20199;-64
2023/08/10 12:13:05;;;;;;;2.17;1.75;;;30.80;94.10;;;;;;5098873;28;20244;-64
2023/08/10 12:15:35;;;;;;;3.92;1.40;;;30.90;92.90;;;;;;5105772;28;20200;-64
2023/08/10 12:18:05;;;;;;;2.80;1.65;;;30.90;92.40;;;;;;5107006;28;20748;-64
2023/08/10 12:20:34;;;;;;;1.58;1.20;;;31.10;91.90;;;;;;5097494;28;20195;-64
2023/08/10 12:23:02;;;;;;;1.63;1.52;;;31.10;94.20;;;;;;5110573;28;20642;-64
2023/08/10 12:25:31;;;;;;;1.65;1.48;;;31.10;92.80;;;;;;5102022;28;20622;-64
2023/08/10 12:27:59;;;;;;;4.57;1.90;;;31.10;91.10;;;;;;5102343;28;20248;-64
2023/08/10 12:30:27;;;;;;;2.45;1.30;;;31.10;92.80;;;;;;5110147;28;20256;-64
2023/08/10 12:32:55;;;;;;;2.28;1.38;;;31.20;91.00;;;;;;5097412;28;20222;-64
2023/08/10 12:35:24;;;;;;;2.15;1.20;;;31.40;92.50;;;;;;5106763;28;20732;-64
2023/08/10 12:37:53;;;;;;;5.22;1.42;;;31.70;86.60;;;;;;5105233;28;20653;-64
2023/08/10 12:40:21;;;;;;;1.70;1.38;;;31.90;87.20;;;;;;5098984;28;20232;-64
2023/08/10 12:42:50;;;;;;;2.40;1.80;;;32.10;84.50;;;;;;5109735;28;20210;-64
2023/08/10 12:45:18;;;;;;;4.57;1.70;;;32.10;85.20;;;;;;5099870;28;20203;-64
2023/08/10 12:47:46;;;;;;;2.70;1.52;;;32.10;81.40;;;;;;5103508;28;20244;-64
2023/08/10 12:50:15;;;;;;;4.10;1.77;;;32.00;80.60;;;;;;5108124;28;20210;-65
2023/08/10 12:52:45;;;;;;;3.17;1.70;;;32.10;84.40;;;;;;5097213;28;20235;-64